createdAt,value
2023-05-09T00:01:13.343Z,17.83
2023-05-09T00:02:46.145Z,17.80
2023-05-09T00:04:18.181Z,17.78
2023-05-09T00:05:50.348Z,17.79
2023-05-09T00:07:22.259Z,17.81
2023-05-09T00:08:55.059Z,17.82
2023-05-09T00:10:27.386Z,17.84
2023-05-09T00:11:59.422Z,17.81
2023-05-09T00:13:31.335Z,17.84
2023-05-09T00:15:03.845Z,17.83
2023-05-09T00:16:36.987Z,17.88
2023-05-09T00:18:08.918Z,17.89
2023-05-09T00:19:40.875Z,17.86
2023-05-09T00:21:12.917Z,17.89
2023-05-09T00:22:44.904Z,17.85
2023-05-09T00:24:16.797Z,17.85
2023-05-09T00:25:48.858Z,17.83
2023-05-09T00:27:20.883Z,17.80
2023-05-09T00:28:52.837Z,17.82
2023-05-09T00:30:24.975Z,17.84
2023-05-09T00:31:57.067Z,17.84
2023-05-09T00:33:29.162Z,17.79
2023-05-09T00:35:01.157Z,17.75
2023-05-09T00:36:33.309Z,17.77
2023-05-09T00:38:05.321Z,17.75
2023-05-09T00:39:37.295Z,17.73
2023-05-09T00:41:09.214Z,17.72
2023-05-09T00:42:41.131Z,17.68
2023-05-09T00:44:13.073Z,17.70
2023-05-09T00:45:46.014Z,17.69
2023-05-09T00:47:18.057Z,17.69
2023-05-09T00:48:50.106Z,17.74
2023-05-09T00:50:22.328Z,17.73
2023-05-09T00:51:55.193Z,17.74
2023-05-09T00:53:27.183Z,17.72
2023-05-09T00:54:59.206Z,17.74
2023-05-09T00:56:31.515Z,17.74
2023-05-09T00:58:03.949Z,17.74
2023-05-09T00:59:36.251Z,17.70
2023-05-09T01:01:11.677Z,17.61
2023-05-09T01:02:48.272Z,17.57
2023-05-09T01:04:20.361Z,17.55
2023-05-09T01:06:00.675Z,17.57
2023-05-09T01:07:40.345Z,17.59
2023-05-09T01:09:33.283Z,17.53
2023-05-09T01:11:30.502Z,17.39
2023-05-09T01:13:06.482Z,17.39
2023-05-09T01:15:06.898Z,17.39
2023-05-09T01:16:46.554Z,17.45
2023-05-09T01:18:31.866Z,17.50
2023-05-09T01:20:31.510Z,17.50
2023-05-09T01:22:09.011Z,17.48
2023-05-09T01:23:49.467Z,17.45
2023-05-09T01:25:37.356Z,17.44
2023-05-09T01:27:29.310Z,17.36
2023-05-09T01:29:16.890Z,17.37
2023-05-09T01:30:51.924Z,17.36
2023-05-09T01:32:28.778Z,17.37
2023-05-09T01:34:02.782Z,17.36
2023-05-09T01:35:38.181Z,17.36
2023-05-09T01:37:12.707Z,17.39
2023-05-09T01:38:53.045Z,17.42
2023-05-09T01:40:26.260Z,17.44
2023-05-09T01:41:58.686Z,17.46
2023-05-09T01:43:31.558Z,17.42
2023-05-09T01:45:04.630Z,17.35
2023-05-09T01:46:37.896Z,17.27
2023-05-09T01:48:10.551Z,17.22
2023-05-09T01:49:43.998Z,17.23
2023-05-09T01:51:16.882Z,17.22
2023-05-09T01:52:50.299Z,17.28
2023-05-09T01:54:22.952Z,17.25
2023-05-09T01:55:54.780Z,17.19
2023-05-09T01:57:27.597Z,17.24
2023-05-09T01:59:01.267Z,17.25
2023-05-09T02:00:34.568Z,17.27
2023-05-09T02:02:07.267Z,17.28
2023-05-09T02:03:39.177Z,17.27
2023-05-09T02:05:12.443Z,17.19
2023-05-09T02:06:47.418Z,17.21
2023-05-09T02:08:21.493Z,17.24
2023-05-09T02:09:57.106Z,17.21
2023-05-09T02:11:29.483Z,17.20
2023-05-09T02:13:01.601Z,17.19
2023-05-09T02:14:34.633Z,17.19
2023-05-09T02:16:07.979Z,17.21
2023-05-09T02:17:43.733Z,17.25
2023-05-09T02:19:15.680Z,17.21
2023-05-09T02:20:47.713Z,17.18
2023-05-09T02:22:19.645Z,17.23
2023-05-09T02:23:51.804Z,17.23
2023-05-09T02:25:23.873Z,17.19
2023-05-09T02:26:56.626Z,17.21
2023-05-09T02:28:28.502Z,17.20
2023-05-09T02:30:04.429Z,17.24
2023-05-09T02:31:36.887Z,17.27
2023-05-09T02:33:10.681Z,17.24
2023-05-09T02:34:43.348Z,17.24
2023-05-09T02:36:15.729Z,17.25
2023-05-09T02:37:47.921Z,17.17
2023-05-09T02:39:19.924Z,17.12
2023-05-09T02:40:52.727Z,17.12
2023-05-09T02:42:27.276Z,17.12
2023-05-09T02:43:59.261Z,17.14
2023-05-09T02:45:31.422Z,17.17
2023-05-09T02:47:03.965Z,17.12
2023-05-09T02:48:36.608Z,17.16
2023-05-09T02:50:08.820Z,17.18
2023-05-09T02:51:42.179Z,17.20
2023-05-09T02:53:14.044Z,17.20
2023-05-09T02:54:48.232Z,17.21
2023-05-09T02:56:20.147Z,17.13
2023-05-09T02:58:01.922Z,17.11
2023-05-09T02:59:41.598Z,16.99
2023-05-09T03:01:13.666Z,17.02
2023-05-09T03:02:46.252Z,17.03
2023-05-09T03:04:21.493Z,17.04
2023-05-09T03:05:53.377Z,17.04
2023-05-09T03:07:25.424Z,17.02
2023-05-09T03:08:57.387Z,16.97
2023-05-09T03:10:30.459Z,16.96
2023-05-09T03:12:02.908Z,16.83
2023-05-09T03:13:34.890Z,16.82
2023-05-09T03:15:07.711Z,16.87
2023-05-09T03:16:40.173Z,16.86
2023-05-09T03:18:19.295Z,16.89
2023-05-09T03:19:51.290Z,16.89
2023-05-09T03:21:23.257Z,16.88
2023-05-09T03:22:55.252Z,16.90
2023-05-09T03:24:28.514Z,16.78
2023-05-09T03:26:00.478Z,16.73
2023-05-09T03:27:32.565Z,16.77
2023-05-09T03:29:05.079Z,16.81
2023-05-09T03:30:37.074Z,16.78
2023-05-09T03:32:13.962Z,16.75
2023-05-09T03:33:47.334Z,16.71
2023-05-09T03:35:20.236Z,16.65
2023-05-09T03:36:52.238Z,16.64
2023-05-09T03:38:24.716Z,16.67
2023-05-09T03:39:56.833Z,16.65
2023-05-09T03:41:28.843Z,16.69
2023-05-09T03:43:01.581Z,16.65
2023-05-09T03:44:33.610Z,16.65
2023-05-09T03:46:05.571Z,16.68
2023-05-09T03:47:37.508Z,16.70
2023-05-09T03:49:10.572Z,16.56
2023-05-09T03:50:42.668Z,16.61
2023-05-09T03:52:16.198Z,16.61
2023-05-09T03:53:49.772Z,16.58
2023-05-09T03:55:24.016Z,16.55
2023-05-09T03:56:56.082Z,16.54
2023-05-09T03:58:28.513Z,16.54
2023-05-09T04:00:01.202Z,16.54
2023-05-09T04:01:33.351Z,16.56
2023-05-09T04:03:07.090Z,16.61
2023-05-09T04:04:45.052Z,16.61
2023-05-09T04:06:17.120Z,16.63
2023-05-09T04:07:49.628Z,16.54
2023-05-09T04:09:21.630Z,16.60
2023-05-09T04:10:53.581Z,16.57
2023-05-09T04:12:25.604Z,16.49
2023-05-09T04:13:57.714Z,16.48
2023-05-09T04:15:47.446Z,16.52
2023-05-09T04:17:19.539Z,16.55
2023-05-09T04:18:51.760Z,16.58
2023-05-09T04:20:23.763Z,16.61
2023-05-09T04:21:56.061Z,16.63
2023-05-09T04:23:28.011Z,16.65
2023-05-09T04:25:04.435Z,16.67
2023-05-09T04:26:38.616Z,16.70
2023-05-09T04:28:13.459Z,16.62
2023-05-09T04:29:45.876Z,16.66
2023-05-09T04:31:18.382Z,16.58
2023-05-09T04:32:55.649Z,16.61
2023-05-09T04:34:28.582Z,16.59
2023-05-09T04:36:03.327Z,16.58
2023-05-09T04:37:35.541Z,16.58
2023-05-09T04:39:11.582Z,16.60
2023-05-09T04:40:47.734Z,16.61
2023-05-09T04:42:19.753Z,16.65
2023-05-09T04:43:52.597Z,16.68
2023-05-09T04:45:25.731Z,16.64
2023-05-09T04:46:58.447Z,16.65
2023-05-09T04:48:30.436Z,16.66
2023-05-09T04:50:02.493Z,16.67
2023-05-09T04:51:34.469Z,16.73
2023-05-09T04:53:08.658Z,16.74
2023-05-09T04:54:41.455Z,16.74
2023-05-09T04:56:13.700Z,16.78
2023-05-09T04:57:46.115Z,16.79
2023-05-09T04:59:18.081Z,16.80
2023-05-09T05:00:51.687Z,16.82
2023-05-09T05:02:25.462Z,16.79
2023-05-09T05:03:58.284Z,16.82
2023-05-09T05:05:30.681Z,16.83
2023-05-09T05:07:03.774Z,16.86
2023-05-09T05:08:36.088Z,16.83
2023-05-09T05:10:08.682Z,16.83
2023-05-09T05:11:47.737Z,16.65
2023-05-09T05:13:29.834Z,16.66
2023-05-09T05:15:05.561Z,16.60
2023-05-09T05:16:37.674Z,16.67
2023-05-09T05:18:09.900Z,16.68
2023-05-09T05:19:41.986Z,16.64
2023-05-09T05:21:14.074Z,16.64
2023-05-09T05:22:46.182Z,16.66
2023-05-09T05:24:18.538Z,16.69
2023-05-09T05:25:51.171Z,16.71
2023-05-09T05:27:23.851Z,16.75
2023-05-09T05:28:57.389Z,16.79
2023-05-09T05:30:32.784Z,16.85
2023-05-09T05:32:06.561Z,16.80
2023-05-09T05:33:39.105Z,16.86
2023-05-09T05:35:14.373Z,16.88
2023-05-09T05:36:47.906Z,16.85
2023-05-09T05:38:19.970Z,16.85
2023-05-09T05:39:55.773Z,16.87
2023-05-09T05:41:29.572Z,16.78
2023-05-09T05:43:01.979Z,16.75
2023-05-09T05:44:35.175Z,16.75
2023-05-09T05:46:07.425Z,16.85
2023-05-09T05:47:40.182Z,16.89
2023-05-09T05:49:12.553Z,16.86
2023-05-09T05:50:44.447Z,16.86
2023-05-09T05:52:18.545Z,16.86
2023-05-09T05:53:50.915Z,16.91
2023-05-09T05:55:23.470Z,16.88
2023-05-09T05:56:55.693Z,16.94
2023-05-09T05:58:28.255Z,16.98
2023-05-09T06:00:00.244Z,17.00
2023-05-09T06:01:32.198Z,16.95
2023-05-09T06:03:04.284Z,16.93
2023-05-09T06:04:59.746Z,16.97
2023-05-09T06:06:32.524Z,17.00
2023-05-09T06:08:04.512Z,17.02
2023-05-09T06:09:37.676Z,17.03
2023-05-09T06:11:09.851Z,17.09
2023-05-09T06:12:41.989Z,17.13
2023-05-09T06:14:14.072Z,17.14
2023-05-09T06:15:46.129Z,17.19
2023-05-09T06:17:18.181Z,17.18
2023-05-09T06:18:50.554Z,17.16
2023-05-09T06:20:22.918Z,17.15
2023-05-09T06:21:54.824Z,17.15
2023-05-09T06:23:26.810Z,17.14
2023-05-09T06:24:58.686Z,17.21
2023-05-09T06:26:30.650Z,17.17
2023-05-09T06:28:02.528Z,17.16
2023-05-09T06:29:34.537Z,17.25
2023-05-09T06:31:06.605Z,17.28
2023-05-09T06:32:38.690Z,17.34
2023-05-09T06:34:10.712Z,17.36
2023-05-09T06:35:42.756Z,17.30
2023-05-09T06:37:14.753Z,17.30
2023-05-09T06:38:46.705Z,17.38
2023-05-09T06:40:18.668Z,17.35
2023-05-09T06:41:50.643Z,17.39
2023-05-09T06:43:29.596Z,17.44
2023-05-09T06:45:01.707Z,17.45
2023-05-09T06:46:33.709Z,17.54
2023-05-09T06:48:06.086Z,17.55
2023-05-09T06:49:38.062Z,17.64
2023-05-09T06:51:10.172Z,17.67
2023-05-09T06:52:42.056Z,17.68
2023-05-09T06:54:14.090Z,17.71
2023-05-09T06:55:48.924Z,17.78
2023-05-09T06:57:20.991Z,17.78
2023-05-09T06:58:53.057Z,17.64
2023-05-09T07:00:25.011Z,17.68
2023-05-09T07:01:57.063Z,17.71
2023-05-09T07:03:29.104Z,17.69
2023-05-09T07:05:01.336Z,17.79
2023-05-09T07:06:33.488Z,17.84
2023-05-09T07:08:05.508Z,17.82
2023-05-09T07:09:37.527Z,17.84
2023-05-09T07:11:09.538Z,17.95
2023-05-09T07:12:41.734Z,17.92
2023-05-09T07:14:13.837Z,18.05
2023-05-09T07:15:45.895Z,18.11
2023-05-09T07:17:23.711Z,18.14
2023-05-09T07:18:56.442Z,18.13
2023-05-09T07:20:28.365Z,18.09
2023-05-09T07:22:00.337Z,18.11
2023-05-09T07:23:32.269Z,18.10
2023-05-09T07:25:04.595Z,18.24
2023-05-09T07:26:36.834Z,18.34
2023-05-09T07:28:08.794Z,18.38
2023-05-09T07:29:40.908Z,18.48
2023-05-09T07:31:12.879Z,18.59
2023-05-09T07:32:44.852Z,18.80
2023-05-09T07:34:17.145Z,18.87
2023-05-09T07:35:49.330Z,18.92
2023-05-09T07:37:21.322Z,18.99
2023-05-09T07:38:53.821Z,19.04
2023-05-09T07:40:25.740Z,19.09
2023-05-09T07:41:57.696Z,19.04
2023-05-09T07:43:29.729Z,18.91
2023-05-09T07:45:01.785Z,19.01
2023-05-09T07:46:33.766Z,19.02
2023-05-09T07:48:06.186Z,19.00
2023-05-09T07:49:38.133Z,19.08
2023-05-09T07:51:10.199Z,19.08
2023-05-09T07:52:42.244Z,19.04
2023-05-09T07:54:14.385Z,19.13
2023-05-09T07:55:48.617Z,19.16
2023-05-09T07:57:20.799Z,19.22
2023-05-09T07:58:55.070Z,19.25
2023-05-09T08:00:27.797Z,19.30
2023-05-09T08:01:59.852Z,19.32
2023-05-09T08:03:31.884Z,19.41
2023-05-09T08:05:04.070Z,19.52
2023-05-09T08:06:36.916Z,19.54
2023-05-09T08:08:08.693Z,19.67
2023-05-09T08:09:40.795Z,19.68
2023-05-09T08:11:12.724Z,19.75
2023-05-09T08:12:44.699Z,19.76
2023-05-09T08:14:16.772Z,19.68
2023-05-09T08:15:49.229Z,19.69
2023-05-09T08:17:21.260Z,19.71
2023-05-09T08:18:53.410Z,19.71
2023-05-09T08:20:25.385Z,19.83
2023-05-09T08:21:57.450Z,19.95
2023-05-09T08:23:30.582Z,19.94
2023-05-09T08:25:02.477Z,19.92
2023-05-09T08:26:35.461Z,19.89
2023-05-09T08:28:07.398Z,19.88
2023-05-09T08:29:39.695Z,19.89
2023-05-09T08:31:11.815Z,19.92
2023-05-09T08:32:43.771Z,19.91
2023-05-09T08:34:16.262Z,19.81
2023-05-09T08:35:53.117Z,19.83
2023-05-09T08:37:25.014Z,19.84
2023-05-09T08:38:57.140Z,19.81
2023-05-09T08:40:29.127Z,19.89
2023-05-09T08:42:02.223Z,19.84
2023-05-09T08:43:35.021Z,19.88
2023-05-09T08:45:10.943Z,19.81
2023-05-09T08:46:44.077Z,19.87
2023-05-09T08:48:17.234Z,19.82
2023-05-09T08:49:50.626Z,19.94
2023-05-09T08:51:22.833Z,19.99
2023-05-09T08:52:54.968Z,19.96
2023-05-09T08:54:26.967Z,19.92
2023-05-09T08:56:04.107Z,19.88
2023-05-09T08:57:36.274Z,19.87
2023-05-09T08:59:08.834Z,19.87
2023-05-09T09:00:41.773Z,19.81
2023-05-09T09:02:14.916Z,19.89
2023-05-09T09:03:49.717Z,19.95
2023-05-09T09:05:40.194Z,19.93
2023-05-09T09:07:14.322Z,19.82
2023-05-09T09:08:46.344Z,19.77
2023-05-09T09:10:21.183Z,19.62
2023-05-09T09:11:53.640Z,19.56
2023-05-09T09:13:26.020Z,19.53
2023-05-09T09:15:04.371Z,19.42
2023-05-09T09:16:37.199Z,19.50
2023-05-09T09:18:10.446Z,19.52
2023-05-09T09:19:44.432Z,19.60
2023-05-09T09:21:19.798Z,19.42
2023-05-09T09:22:52.680Z,19.48
2023-05-09T09:24:25.103Z,19.50
2023-05-09T09:26:01.680Z,19.57
2023-05-09T09:27:33.768Z,19.68
2023-05-09T09:29:05.833Z,19.75
2023-05-09T09:30:47.863Z,19.90
2023-05-09T09:32:20.191Z,20.05
2023-05-09T09:33:52.547Z,20.09
2023-05-09T09:35:25.109Z,20.00
2023-05-09T09:36:57.104Z,20.05
2023-05-09T09:38:29.080Z,20.02
2023-05-09T09:40:01.168Z,19.99
2023-05-09T09:41:34.583Z,19.93
2023-05-09T09:43:07.546Z,19.86
2023-05-09T09:44:39.521Z,19.75
2023-05-09T09:46:11.915Z,19.74
2023-05-09T09:47:45.367Z,19.81
2023-05-09T09:49:19.418Z,19.97
2023-05-09T09:50:51.468Z,20.01
2023-05-09T09:52:25.488Z,20.00
2023-05-09T09:53:57.468Z,20.03
2023-05-09T09:55:30.069Z,20.04
2023-05-09T09:57:02.199Z,20.06
2023-05-09T09:58:34.389Z,20.06
2023-05-09T10:00:08.079Z,20.10
2023-05-09T10:02:12.605Z,20.05
2023-05-09T10:03:46.161Z,20.07
2023-05-09T10:05:39.043Z,20.02
2023-05-09T10:07:13.774Z,20.14
2023-05-09T10:08:49.649Z,20.16
2023-05-09T10:10:22.138Z,20.24
2023-05-09T10:11:55.247Z,20.22
2023-05-09T10:13:27.518Z,20.28
2023-05-09T10:14:59.736Z,20.38
2023-05-09T10:16:42.538Z,20.31
2023-05-09T10:18:20.306Z,20.41
2023-05-09T10:19:52.693Z,20.42
2023-05-09T10:21:24.751Z,20.38
2023-05-09T10:22:59.274Z,20.25
2023-05-09T10:24:40.352Z,20.29
2023-05-09T10:26:18.372Z,20.38
2023-05-09T10:27:53.062Z,20.32
2023-05-09T10:29:27.684Z,20.33
2023-05-09T10:31:08.931Z,20.36
2023-05-09T10:32:52.414Z,20.30
2023-05-09T10:34:26.359Z,20.34
2023-05-09T10:35:59.410Z,20.33
2023-05-09T10:37:33.571Z,20.36
2023-05-09T10:39:06.156Z,20.38
2023-05-09T10:40:38.636Z,20.41
2023-05-09T10:42:11.007Z,20.40
2023-05-09T10:43:43.691Z,20.46
2023-05-09T10:45:15.797Z,20.44
2023-05-09T10:46:48.439Z,20.33
2023-05-09T10:48:20.730Z,20.22
2023-05-09T10:49:53.322Z,20.23
2023-05-09T10:51:25.672Z,20.21
2023-05-09T10:53:04.139Z,20.29
2023-05-09T10:54:37.729Z,20.21
2023-05-09T10:56:09.760Z,20.29
2023-05-09T10:57:53.539Z,20.41
2023-05-09T10:59:40.617Z,20.49
2023-05-09T11:01:12.635Z,20.58
2023-05-09T11:03:10.748Z,20.68
2023-05-09T11:04:44.370Z,20.59
2023-05-09T11:06:49.743Z,20.62
2023-05-09T11:08:29.161Z,20.75
2023-05-09T11:10:07.125Z,20.69
2023-05-09T11:11:52.057Z,20.74
2023-05-09T11:13:26.072Z,20.72
2023-05-09T11:15:05.510Z,20.78
2023-05-09T11:16:57.732Z,20.71
2023-05-09T11:18:30.559Z,20.65
2023-05-09T11:20:06.184Z,20.58
2023-05-09T11:21:38.236Z,20.53
2023-05-09T11:23:12.161Z,20.46
2023-05-09T11:24:49.201Z,20.43
2023-05-09T11:26:22.548Z,20.06
2023-05-09T11:27:59.200Z,20.03
2023-05-09T11:29:31.066Z,20.02
2023-05-09T11:31:28.894Z,20.05
2023-05-09T11:33:00.844Z,19.96
2023-05-09T11:34:34.306Z,19.97
2023-05-09T11:36:20.310Z,19.97
2023-05-09T11:38:06.542Z,19.92
2023-05-09T11:39:59.061Z,19.92
2023-05-09T11:41:31.709Z,19.85
2023-05-09T11:43:03.649Z,19.85
2023-05-09T11:44:36.606Z,19.80
2023-05-09T11:46:08.822Z,19.82
2023-05-09T11:47:41.444Z,19.80
2023-05-09T11:49:14.141Z,19.79
2023-05-09T11:50:47.393Z,19.80
2023-05-09T11:52:20.365Z,19.65
2023-05-09T11:53:54.342Z,19.47
2023-05-09T11:55:30.376Z,19.34
2023-05-09T11:57:02.555Z,19.39
2023-05-09T11:58:38.640Z,19.39
2023-05-09T12:00:12.382Z,19.18
2023-05-09T12:01:44.291Z,19.09
2023-05-09T12:03:16.528Z,19.03
2023-05-09T12:04:49.193Z,18.94
2023-05-09T12:06:21.390Z,18.92
2023-05-09T12:07:53.367Z,18.75
2023-05-09T12:09:38.231Z,18.77
2023-05-09T12:11:10.974Z,18.61
2023-05-09T12:12:50.539Z,18.63
2023-05-09T12:14:35.128Z,18.53
2023-05-09T12:16:09.139Z,18.47
2023-05-09T12:17:43.081Z,18.58
2023-05-09T12:19:15.444Z,18.60
2023-05-09T12:20:51.450Z,18.63
2023-05-09T12:22:23.600Z,18.63
2023-05-09T12:23:57.310Z,18.62
2023-05-09T12:25:29.313Z,18.56
2023-05-09T12:27:02.285Z,18.62
2023-05-09T12:28:34.872Z,18.70
2023-05-09T12:30:11.085Z,18.72
2023-05-09T12:31:43.163Z,18.57
2023-05-09T12:33:16.160Z,18.40
2023-05-09T12:34:49.239Z,18.41
2023-05-09T12:36:21.389Z,18.45
2023-05-09T12:37:58.053Z,18.31
2023-05-09T12:39:30.009Z,18.40
2023-05-09T12:41:21.955Z,18.41
2023-05-09T12:43:03.269Z,18.48
2023-05-09T12:44:35.388Z,18.42
2023-05-09T12:46:07.711Z,18.43
2023-05-09T12:47:39.860Z,18.49
2023-05-09T12:49:31.158Z,18.49
2023-05-09T12:51:04.689Z,18.50
2023-05-09T12:52:46.927Z,18.45
2023-05-09T12:54:30.789Z,18.47
2023-05-09T12:56:04.250Z,18.41
2023-05-09T12:57:36.276Z,18.43
2023-05-09T12:59:11.345Z,18.42
2023-05-09T13:00:44.871Z,18.32
2023-05-09T13:02:17.069Z,18.36
2023-05-09T13:04:01.785Z,18.21
2023-05-09T13:05:33.993Z,18.25
2023-05-09T13:07:10.460Z,18.06
2023-05-09T13:08:42.443Z,18.08
2023-05-09T13:10:19.776Z,18.08
2023-05-09T13:11:52.447Z,18.01
2023-05-09T13:13:27.997Z,17.84
2023-05-09T13:15:00.019Z,17.72
2023-05-09T13:16:32.224Z,17.54
2023-05-09T13:18:04.206Z,17.47
2023-05-09T13:19:39.700Z,17.28
2023-05-09T13:21:11.811Z,17.16
2023-05-09T13:22:45.257Z,17.07
2023-05-09T13:24:17.253Z,17.15
2023-05-09T13:25:49.367Z,17.14
2023-05-09T13:27:21.428Z,17.19
2023-05-09T13:28:54.107Z,17.32
2023-05-09T13:30:26.322Z,17.27
2023-05-09T13:31:58.826Z,17.23
2023-05-09T13:33:30.845Z,17.06
2023-05-09T13:35:03.200Z,17.18
2023-05-09T13:36:35.167Z,17.14
2023-05-09T13:38:07.084Z,17.13
2023-05-09T13:39:39.018Z,17.27
2023-05-09T13:41:11.192Z,17.32
2023-05-09T13:42:43.273Z,17.28
2023-05-09T13:44:15.331Z,17.34
2023-05-09T13:45:47.395Z,17.32
2023-05-09T13:47:19.351Z,17.28
2023-05-09T13:48:51.264Z,17.29
2023-05-09T13:50:23.216Z,17.34
2023-05-09T13:51:55.773Z,17.41
2023-05-09T13:53:27.820Z,17.42
2023-05-09T13:54:59.759Z,17.25
2023-05-09T13:56:32.333Z,17.16
2023-05-09T13:58:04.302Z,17.09
2023-05-09T13:59:36.643Z,17.04
2023-05-09T14:01:08.776Z,17.11
2023-05-09T14:02:41.003Z,17.14
2023-05-09T14:04:13.128Z,17.06
2023-05-09T14:05:45.166Z,17.11
2023-05-09T14:07:18.139Z,17.07
2023-05-09T14:08:50.239Z,17.15
2023-05-09T14:10:22.394Z,17.06
2023-05-09T14:11:55.427Z,17.04
2023-05-09T14:13:27.650Z,17.05
2023-05-09T14:14:59.572Z,16.98
2023-05-09T14:16:31.523Z,17.00
2023-05-09T14:18:03.596Z,17.03
2023-05-09T14:19:35.688Z,16.96
2023-05-09T14:21:07.879Z,16.90
2023-05-09T14:22:39.930Z,16.95
2023-05-09T14:24:15.649Z,17.03
2023-05-09T14:25:48.338Z,17.07
2023-05-09T14:27:20.379Z,16.99
2023-05-09T14:28:53.322Z,16.91
2023-05-09T14:30:26.815Z,16.81
2023-05-09T14:31:58.937Z,16.76
2023-05-09T14:33:30.975Z,16.80
2023-05-09T14:35:03.051Z,16.81
2023-05-09T14:36:35.192Z,16.63
2023-05-09T14:38:07.123Z,16.70
2023-05-09T14:39:39.823Z,16.72
2023-05-09T14:41:12.073Z,16.70
2023-05-09T14:42:44.638Z,16.71
2023-05-09T14:44:17.610Z,16.58
2023-05-09T14:45:49.650Z,16.64
2023-05-09T14:47:21.893Z,16.57
2023-05-09T14:48:54.382Z,16.40
2023-05-09T14:50:26.349Z,16.39
2023-05-09T14:51:58.270Z,16.47
2023-05-09T14:53:30.282Z,16.48
2023-05-09T14:55:02.349Z,16.46
2023-05-09T14:56:34.275Z,16.46
2023-05-09T14:58:06.230Z,16.49
2023-05-09T14:59:38.192Z,16.40
2023-05-09T15:01:10.281Z,16.37
2023-05-09T15:02:42.679Z,16.22
2023-05-09T15:04:14.803Z,16.25
2023-05-09T15:05:47.077Z,16.18
2023-05-09T15:07:19.496Z,16.09
2023-05-09T15:08:51.344Z,16.10
2023-05-09T15:10:23.853Z,16.05
2023-05-09T15:11:56.679Z,15.95
2023-05-09T15:13:28.597Z,15.94
2023-05-09T15:15:18.095Z,15.93
2023-05-09T15:16:52.501Z,15.94
2023-05-09T15:18:28.702Z,15.83
2023-05-09T15:20:00.662Z,15.73
2023-05-09T15:21:33.852Z,15.81
2023-05-09T15:23:07.891Z,15.80
2023-05-09T15:24:42.912Z,15.88
2023-05-09T15:26:15.171Z,15.90
2023-05-09T15:27:47.119Z,15.84
2023-05-09T15:29:19.345Z,15.89
2023-05-09T15:30:51.329Z,15.90
2023-05-09T15:32:23.714Z,15.92
2023-05-09T15:33:55.703Z,15.93
2023-05-09T15:35:27.605Z,15.89
2023-05-09T15:36:59.538Z,15.90
2023-05-09T15:38:31.484Z,16.01
2023-05-09T15:40:04.054Z,16.07
2023-05-09T15:41:36.016Z,16.14
2023-05-09T15:43:08.563Z,16.19
2023-05-09T15:44:44.331Z,16.17
2023-05-09T15:46:16.377Z,16.16
2023-05-09T15:47:48.944Z,16.10
2023-05-09T15:49:21.695Z,16.18
2023-05-09T15:50:53.818Z,16.23
2023-05-09T15:52:27.804Z,16.21
2023-05-09T15:54:00.029Z,16.14
2023-05-09T15:55:32.081Z,16.22
2023-05-09T15:57:04.913Z,16.21
2023-05-09T15:58:37.130Z,16.22
2023-05-09T16:00:10.260Z,16.23
2023-05-09T16:01:45.021Z,16.22
2023-05-09T16:03:17.184Z,16.21
2023-05-09T16:04:49.254Z,16.23
2023-05-09T16:06:21.231Z,16.27
2023-05-09T16:07:53.565Z,16.14
2023-05-09T16:09:25.726Z,16.03
2023-05-09T16:11:00.985Z,16.06
2023-05-09T16:12:33.150Z,16.12
2023-05-09T16:14:08.395Z,16.16
2023-05-09T16:15:40.565Z,16.11
2023-05-09T16:17:12.774Z,16.15
2023-05-09T16:18:44.772Z,16.18
2023-05-09T16:20:16.848Z,16.29
2023-05-09T16:21:49.132Z,16.35
2023-05-09T16:23:21.358Z,16.40
2023-05-09T16:24:53.610Z,16.49
2023-05-09T16:26:26.238Z,16.52
2023-05-09T16:27:58.161Z,16.46
2023-05-09T16:29:30.045Z,16.40
2023-05-09T16:31:05.077Z,16.44
2023-05-09T16:32:37.228Z,16.43
2023-05-09T16:34:09.302Z,16.41
2023-05-09T16:35:41.331Z,16.52
2023-05-09T16:37:13.356Z,16.54
2023-05-09T16:38:45.259Z,16.51
2023-05-09T16:40:17.440Z,16.39
2023-05-09T16:41:49.781Z,16.31
2023-05-09T16:43:21.800Z,16.37
2023-05-09T16:44:53.672Z,16.31
2023-05-09T16:46:25.746Z,16.34
2023-05-09T16:47:58.965Z,16.32
2023-05-09T16:49:32.737Z,16.24
2023-05-09T16:51:04.797Z,16.29
2023-05-09T16:52:36.794Z,16.24
2023-05-09T16:54:08.719Z,16.29
2023-05-09T16:55:40.939Z,16.35
2023-05-09T16:57:13.549Z,16.21
2023-05-09T16:58:45.403Z,16.17
2023-05-09T17:00:18.142Z,16.23
2023-05-09T17:01:50.021Z,16.19
2023-05-09T17:03:21.889Z,16.21
2023-05-09T17:04:54.130Z,16.25
2023-05-09T17:06:26.473Z,16.29
2023-05-09T17:07:58.596Z,16.26
2023-05-09T17:09:30.592Z,16.26
2023-05-09T17:11:02.545Z,16.24
2023-05-09T17:12:40.333Z,16.19
2023-05-09T17:14:12.214Z,16.08
2023-05-09T17:15:44.619Z,16.05
2023-05-09T17:17:17.903Z,16.08
2023-05-09T17:18:49.770Z,16.03
2023-05-09T17:20:21.739Z,15.98
2023-05-09T17:21:56.222Z,16.08
2023-05-09T17:23:28.107Z,16.06
2023-05-09T17:24:59.998Z,16.09
2023-05-09T17:26:31.968Z,16.07
2023-05-09T17:28:03.903Z,16.09
2023-05-09T17:29:36.586Z,16.12
2023-05-09T17:31:08.528Z,16.15
2023-05-09T17:32:42.552Z,16.09
2023-05-09T17:34:14.462Z,16.05
2023-05-09T17:35:49.692Z,16.06
2023-05-09T17:37:21.668Z,16.10
2023-05-09T17:38:53.683Z,16.13
2023-05-09T17:40:25.824Z,16.13
2023-05-09T17:41:57.767Z,16.13
2023-05-09T17:43:30.199Z,16.16
2023-05-09T17:45:02.110Z,16.06
2023-05-09T17:46:34.037Z,16.00
2023-05-09T17:48:06.081Z,16.01
2023-05-09T17:49:38.087Z,16.02
2023-05-09T17:51:10.214Z,15.94
2023-05-09T17:52:44.723Z,15.71
2023-05-09T17:54:19.201Z,15.64
2023-05-09T17:55:51.117Z,15.53
2023-05-09T17:57:23.158Z,15.31
2023-05-09T17:58:55.102Z,15.28
2023-05-09T18:00:27.145Z,15.28
2023-05-09T18:01:59.115Z,15.28
2023-05-09T18:03:32.612Z,15.24
2023-05-09T18:05:06.014Z,15.18
2023-05-09T18:06:37.905Z,15.13
2023-05-09T18:08:09.737Z,15.14
2023-05-09T18:09:42.231Z,15.14
2023-05-09T18:11:14.501Z,15.13
2023-05-09T18:12:47.699Z,15.04
2023-05-09T18:14:19.647Z,15.03
2023-05-09T18:15:51.634Z,15.00
2023-05-09T18:17:23.534Z,15.08
2023-05-09T18:18:55.516Z,15.10
2023-05-09T18:20:27.462Z,15.11
2023-05-09T18:21:59.396Z,15.06
2023-05-09T18:23:31.372Z,15.09
2023-05-09T18:25:03.369Z,14.99
2023-05-09T18:26:35.305Z,15.05
2023-05-09T18:28:07.318Z,15.04
2023-05-09T18:29:39.236Z,15.05
2023-05-09T18:31:12.428Z,15.07
2023-05-09T18:32:44.465Z,15.05
2023-05-09T18:34:16.482Z,15.06
2023-05-09T18:35:48.403Z,15.03
2023-05-09T18:37:27.517Z,15.03
2023-05-09T18:38:59.665Z,15.05
2023-05-09T18:40:32.848Z,15.03
2023-05-09T18:42:06.547Z,15.07
2023-05-09T18:43:46.202Z,15.07
2023-05-09T18:45:18.490Z,14.91
2023-05-09T18:46:50.510Z,14.90
2023-05-09T18:48:22.427Z,14.92
2023-05-09T18:49:54.736Z,14.84
2023-05-09T18:51:26.965Z,14.83
2023-05-09T18:52:59.014Z,14.87
2023-05-09T18:54:32.894Z,14.97
2023-05-09T18:56:05.257Z,14.91
2023-05-09T18:57:37.112Z,14.90
2023-05-09T18:59:12.161Z,14.94
2023-05-09T19:00:44.715Z,14.89
2023-05-09T19:02:17.068Z,14.80
2023-05-09T19:03:54.320Z,14.76
2023-05-09T19:05:26.440Z,14.75
2023-05-09T19:06:59.660Z,14.69
2023-05-09T19:08:31.557Z,14.73
2023-05-09T19:10:04.878Z,14.78
2023-05-09T19:11:36.964Z,14.81
2023-05-09T19:13:09.203Z,14.78
2023-05-09T19:14:41.408Z,14.77
2023-05-09T19:16:13.353Z,14.67
2023-05-09T19:17:45.496Z,14.70
2023-05-09T19:19:17.413Z,14.74
2023-05-09T19:20:49.417Z,14.68
2023-05-09T19:22:21.383Z,14.69
2023-05-09T19:23:53.325Z,14.72
2023-05-09T19:25:26.153Z,14.61
2023-05-09T19:26:57.977Z,14.63
2023-05-09T19:28:29.932Z,14.59
2023-05-09T19:30:02.084Z,14.52
2023-05-09T19:31:36.645Z,14.53
2023-05-09T19:33:08.621Z,14.57
2023-05-09T19:34:40.669Z,14.51
2023-05-09T19:36:13.105Z,14.59
2023-05-09T19:37:45.032Z,14.61
2023-05-09T19:39:16.940Z,14.61
2023-05-09T19:40:49.004Z,14.60
2023-05-09T19:42:21.773Z,14.55
2023-05-09T19:43:53.631Z,14.65
2023-05-09T19:45:25.664Z,14.57
2023-05-09T19:46:58.746Z,14.59
2023-05-09T19:48:30.718Z,14.66
2023-05-09T19:50:02.739Z,14.59
2023-05-09T19:51:34.693Z,14.59
2023-05-09T19:53:06.646Z,14.60
2023-05-09T19:54:38.592Z,14.60
2023-05-09T19:56:10.763Z,14.55
2023-05-09T19:57:42.922Z,14.50
2023-05-09T19:59:14.807Z,14.47
2023-05-09T20:00:46.978Z,14.48
2023-05-09T20:02:18.963Z,14.51
2023-05-09T20:03:52.438Z,14.47
2023-05-09T20:07:10.517Z,14.48
2023-05-09T20:08:42.422Z,14.47